WEATHER DATA

YESTERDAY
Time Temp. Dewp. Hum. Wind dir Wind speed Wind gust Bar.
00:04 18.5 14.2 76 284 1.9 2.8 1010.6
00:15 18.5 14.2 76 282 2.2 3.3 1010.6
00:24 18.6 14.1 75 282 2.2 3.1 1010.6
00:34 18.6 14.1 75 283 2.2 2.8 1010.6
00:45 18.6 14.3 76 282 1.7 2.5 1010.6
00:55 18.6 14.5 77 278 1.7 2.5 1010.6
01:04 18.5 14.4 77 281 1.7 2.5 1010.7
01:14 18.5 14.4 77 282 1.7 2.5 1010.6
01:25 18.4 14.5 78 282 1.4 2.5 1010.5
01:35 18.4 14.3 77 279 1.7 2.2 1010.5
01:44 18.3 14.2 77 286 1.7 2.5 1010.4
01:55 18.2 14.1 77 282 1.7 2.5 1010.4
02:05 18.1 14 77 283 1.7 2.8 1010.4
02:15 18 13.9 77 282 1.9 2.8 1010.4
02:25 17.9 13.8 77 281 1.9 3.1 1010.5
02:35 17.8 13.7 77 283 1.7 2.8 1010.5
02:45 17.7 13.6 77 280 1.7 2.2 1010.5
02:55 17.5 13.6 78 280 1.9 3.1 1010.4
03:06 17.3 13.4 78 283 1.7 2.5 1010.5
03:15 17.1 13.4 79 278 1.9 2.8 1010.5
03:25 16.9 13.2 79 279 1.9 2.8 1010.6
03:35 16.8 13.1 79 278 1.7 2.5 1010.5
03:46 16.6 13.1 80 276 1.7 2.5 1010.6
03:55 16.4 12.9 80 270 1.7 2.5 1010.5
04:05 16.2 12.9 81 280 1.9 2.8 1010.4
04:16 16.1 12.8 81 279 1.9 2.5 1010.4
04:26 16 12.9 82 278 1.7 2.5 1010.4
04:36 15.9 12.8 82 282 1.7 2.5 1010.3
04:46 15.8 12.5 81 278 1.7 2.8 1010.2
04:55 15.7 12.6 82 270 1.7 2.2 1010.2
05:06 15.5 12.6 83 279 1.7 2.5 1010.2
05:16 15.4 12.5 83 275 1.7 2.5 1010.1
05:26 15.2 12.3 83 277 1.7 2.8 1010.1
05:36 15.1 12.4 84 275 1.7 2.5 1010
05:46 15 12.3 84 270 1.7 2.5 1010.1
05:56 14.9 12.2 84 270 1.7 2.2 1010.1
06:06 14.9 12.2 84 275 1.7 2.5 1010.1
06:16 14.8 12.1 84 277 1.7 3.1 1010.1
06:26 14.7 12 84 280 1.4 2.8 1010.2
06:37 14.7 12.2 85 270 0.3 1.4 1010.3
06:47 14.8 12.3 85 238 1.9 3.1 1010.2
06:56 14.9 12.2 84 246 5 7.5 1010.3
07:07 15 12.3 84 265 1.7 6.9 1010.4
07:17 15.2 12.5 84 122 1.9 5.3 1010.5
07:24 15.4 12.7 84 94 3.3 8.9 1010.4
07:34 15.7 12.8 83 84 3.6 8.6 1010.5
07:44 16.1 13 82 94 3.3 8.1 1010.5
07:54 16.4 13.3 82 84 3.9 8.1 1010.6
08:05 16.7 13.4 81 97 3.6 7.2 1010.5
08:14 17.4 13.9 80 95 3.9 8.9 1010.5
08:24 17.9 14 78 59 3.3 7.2 1010.7
08:35 18.3 14.2 77 58 2.8 6.9 1010.6
08:45 18.8 14.5 76 338 3.1 6.7 1010.6
08:54 19.3 14.8 75 77 5.3 7.2 1010.6
09:04 19.8 15 74 124 2.8 4.7 1010.7
09:10 20 15 73 181 3.1 7.5 1010.7
09:21 20.5 15.3 72 175 2.8 10 1010.7
09:31 21 15.3 70 163 1.9 3.9 1010.6
09:40 21.4 15.5 69 168 2.2 6.7 1010.6
09:51 21.9 16 69 171 2.8 6.9 1010.7
10:01 22.2 16.2 69 233 2.2 5.6 1010.7
10:11 22.5 16.1 67 192 2.2 6.4 1010.6
10:21 22.8 16.1 66 142 2.8 7.5 1010.7
10:31 23.2 16.3 65 170 3.3 7.2 1010.8
10:41 23.8 15.6 60 211 3.1 5.8 1010.7
10:51 24.1 15.3 58 146 3.3 7.5 1010.8
11:01 24.6 15.8 58 150 3.6 6.9 1010.8
11:11 25.2 15.5 55 83 4.7 8.6 1010.7
11:21 25.6 15 52 3.6 7.5 1010.7
11:31 25.9 15.9 54 90 4.7 9.2 1010.7
11:42 26.9 15.6 50 226 3.3 5.6 1010.6
11:51 27.3 15.3 48 208 4.2 7.5 1010.6
12:01 27.2 15.2 48 4.4 7.2 1010.6
12:12 27.1 15.2 48 3.3 5.3 1010.5
12:22 27 15.4 49 174 3.6 6.1 1010.4
12:31 27.3 15.7 49 88 4.2 7.2 1010.4
12:42 27.5 15.8 49 97 5 8.9 1010.3
12:52 28.1 15.7 47 99 4.7 10.3 1010.3
13:02 28 14.6 44 124 3.9 7.8 1010.3
13:11 28.2 14.8 44 102 4.4 7.8 1010.3
13:22 28.7 14.5 42 104 5.3 9.4 1010.2
13:32 28.7 14.9 43 137 3.6 7.2 1010.2
13:42 28.8 15.3 44 90 5 9.2 1010.2
13:52 29.4 14.8 41 100 5 9.7 1010.2
14:02 29.2 14.2 40 102 4.4 8.3 1010.1
14:12 29 14.4 41 225 3.1 6.1 1010
14:22 28.8 14.6 42 90 4.7 8.3 1009.8
14:33 29.3 14.3 40 97 4.7 8.6 1010
14:42 29.5 14.9 41 147 4.7 8.6 1010
14:52 29.5 14.9 41 99 5.3 9.4 1010
15:02 29.7 14.3 39 72 4.2 8.1 1010.2
15:13 29.6 14.6 40 108 4.2 7.5 1010.1
15:22 29.5 14.5 40 236 2.2 4.7 1010.1
15:32 29.4 14.8 41 243 3.3 5.8 1010
15:43 29.4 14.4 40 243 3.1 6.1 1009.8
15:53 29.3 15.1 42 82 3.9 7.2 1009.6
16:03 29.3 14.7 41 106 3.6 6.4 1009.6
16:13 29.2 15 42 87 4.4 6.9 1009.5
16:23 29.2 15 42 205 2.2 5.8 1009.7
16:33 29.2 15 42 245 2.8 6.1 1009.7
16:43 29.3 14.7 41 242 2.8 5 1009.8
16:57 29.2 14.6 41 302 1.1 3.9 1009.8
17:07 29.3 14.7 41 270 0.6 1.1 1009.6
17:13 29.2 15 42 303 0.6 4.4 1009.6
17:23 29.3 14.3 40 247 3.6 6.1 1009.4
17:33 29.3 14.3 40 242 3.1 5.3 1009.4
17:43 29.2 15 42 243 3.3 5.3 1009.3
17:53 29.3 15.1 42 234 2.5 4.4 1009.5
18:04 29.2 15.3 43 270 0.8 4.2 1009.4
18:13 29 17.2 49 255 0.6 1.7 1009.2
18:23 28.7 16.3 47 241 1.7 3.1 1009.3
18:34 28.4 17.3 51 249 1.7 2.5 1009.3
18:44 28.1 16.7 50 260 1.4 2.8 1009.3
18:53 27.9 15.2 46 270 1.1 2.2 1009.3
19:03 27.6 14.6 45 270 1.1 1.9 1009.4
19:14 27.3 14.7 46 239 1.1 1.9 1009.4
19:24 27 15.4 49 226 1.1 1.9 1009.5
19:33 26.7 16 52 226 1.1 1.9 1009.6
19:44 26.4 16.3 54 231 1.1 1.9 1009.6
19:54 26 16 54 228 1.4 3.1 1009.6
20:03 25.7 15.7 54 249 1.9 3.1 1009.7
20:13 25.3 15.3 54 260 1.9 2.8 1009.8
20:24 24.9 15 54 255 1.9 3.1 1009.8
20:27 24.8 15.2 55 251 1.7 2.5 1009.7
21:04 23.4 14.4 57 283 3.3 4.4 1009.8
21:48 22 13.6 59 284 3.1 3.9 1009.7
21:55 21.8 13.7 60 291 3.3 4.4 1009.6
22:05 21.5 13.2 59 286 3.1 3.9 1009.6
23:07 20.1 13.1 64 290 3.1 4.2 1009.6
23:13 20 13.2 65 289 3.1 3.9 1010
23:27 19.7 13.2 66 289 3.1 4.2 1010.1
23:37 19.5 13 66 288 3.1 4.2 1010.2
23:38 19.5 13 66 289 2.8 3.9 1010.2

DAY STATISTIC

2022-08-17
TEMPERATURE
AVERAGE
22.5
HIGH
29.7
15:02
LOW
14.7
06:26
PRESSURE
AVERAGE
1010.2
HIGH
1010.8
10:31
LOW
1009.2
18:13
DEWPOINT
AVERAGE
14.3
HIGH
17.3
18:34
LOW
12.0
06:26
HUMIDITY
AVERAGE
63
HIGH
85
06:37
LOW
39
15:02
WIND SPEED
AVERAGE
2.7
HIGH
5.3
08:54
WIND GUST
AVERAGE
4.9
HIGH
10.3
12:52
WIND DIRECTION
PREVAILING
W
45.9%
N
0.8
NE
1.5
E
18.8
SE
6.0
S
6.0
SW
17.3
W
45.9
NW
1.5
TEMPERATURE (°C)
LOW
14.7
HIGH
29.7
AVERAGE
22.5
PRESSURE (hpa)
LOW
1009.2
HIGH
1010.8
AVERAGE
1010.2
DEVICE